createdAt,value
2023-04-07T00:00:27.004Z,10.83
2023-04-07T00:03:14.017Z,11.53
2023-04-07T00:05:41.023Z,11.57
2023-04-07T00:08:08.054Z,10.83
2023-04-07T00:10:35.409Z,11.37
2023-04-07T00:13:02.650Z,11.27
2023-04-07T00:15:29.506Z,11.70
2023-04-07T00:17:56.953Z,12.30
2023-04-07T00:20:23.996Z,11.03
2023-04-07T00:22:51.052Z,11.40
2023-04-07T00:25:17.959Z,11.93
2023-04-07T00:27:45.033Z,12.27
2023-04-07T00:30:12.114Z,11.50
2023-04-07T00:32:39.329Z,11.50
2023-04-07T00:35:06.768Z,11.43
2023-04-07T00:37:33.738Z,10.73
2023-04-07T00:40:00.667Z,12.03
2023-04-07T00:42:27.677Z,11.83
2023-04-07T00:44:54.629Z,11.43
2023-04-07T00:47:21.640Z,11.57
2023-04-07T00:49:48.780Z,12.43
2023-04-07T00:52:16.488Z,11.93
2023-04-07T00:54:46.845Z,11.80
2023-04-07T00:57:14.495Z,11.90
2023-04-07T00:59:41.286Z,11.57
2023-04-07T01:02:16.281Z,14.03
2023-04-07T01:05:15.805Z,12.10
2023-04-07T01:07:55.918Z,12.07
2023-04-07T01:10:33.972Z,12.80
2023-04-07T01:13:10.939Z,11.53
2023-04-07T01:15:39.878Z,13.27
2023-04-07T01:18:13.080Z,14.20
2023-04-07T01:20:43.098Z,14.00
2023-04-07T01:23:17.888Z,12.53
2023-04-07T01:26:26.006Z,12.40
2023-04-07T01:29:18.284Z,12.90
2023-04-07T01:31:49.091Z,14.13
2023-04-07T01:34:17.666Z,13.93
2023-04-07T01:36:46.282Z,14.57
2023-04-07T01:39:13.868Z,14.80
2023-04-07T01:41:41.968Z,13.63
2023-04-07T01:44:09.790Z,16.67
2023-04-07T01:46:36.676Z,15.73
2023-04-07T01:49:05.467Z,15.83
2023-04-07T01:51:33.884Z,14.10
2023-04-07T01:54:02.158Z,12.70
2023-04-07T01:56:28.931Z,13.27
2023-04-07T01:58:57.950Z,14.47
2023-04-07T02:01:26.048Z,13.27
2023-04-07T02:03:56.795Z,13.40
2023-04-07T02:06:32.159Z,12.40
2023-04-07T02:09:06.861Z,11.27
2023-04-07T02:11:36.115Z,12.17
2023-04-07T02:14:07.284Z,10.90
2023-04-07T02:16:48.440Z,10.40
2023-04-07T02:19:16.607Z,10.60
2023-04-07T02:21:45.643Z,10.67
2023-04-07T02:24:12.733Z,11.33
2023-04-07T02:26:39.561Z,11.07
2023-04-07T02:29:06.910Z,11.43
2023-04-07T02:31:33.669Z,12.10
2023-04-07T02:34:01.363Z,11.13
2023-04-07T02:36:28.186Z,10.87
2023-04-07T02:38:55.790Z,11.40
2023-04-07T02:41:22.903Z,11.23
2023-04-07T02:43:49.937Z,10.80
2023-04-07T02:46:16.773Z,10.77
2023-04-07T02:48:43.849Z,11.43
2023-04-07T02:51:10.866Z,11.73
2023-04-07T02:53:38.085Z,11.60
2023-04-07T02:56:05.844Z,11.20
2023-04-07T02:58:32.918Z,10.77
2023-04-07T03:00:59.716Z,11.33
2023-04-07T03:03:30.716Z,11.00
2023-04-07T03:06:12.086Z,10.17
2023-04-07T03:08:50.455Z,11.70
2023-04-07T03:11:17.464Z,11.00
2023-04-07T03:13:45.310Z,10.43
2023-04-07T03:16:12.305Z,11.73
2023-04-07T03:18:53.200Z,12.40
2023-04-07T03:21:22.190Z,13.23
2023-04-07T03:23:49.184Z,11.20
2023-04-07T03:26:16.207Z,13.00
2023-04-07T03:28:43.383Z,13.00
2023-04-07T03:31:10.331Z,11.80
2023-04-07T03:33:37.424Z,13.43
2023-04-07T03:36:04.536Z,13.30
2023-04-07T03:38:32.708Z,12.10
2023-04-07T03:41:02.206Z,12.30
2023-04-07T03:43:29.284Z,13.37
2023-04-07T03:45:56.369Z,12.43
2023-04-07T03:48:24.812Z,14.07
2023-04-07T03:51:01.823Z,12.90
2023-04-07T03:53:28.923Z,12.17
2023-04-07T03:55:56.794Z,11.43
2023-04-07T03:58:44.358Z,12.33
2023-04-07T04:01:17.045Z,12.73
2023-04-07T04:03:47.233Z,12.53
2023-04-07T04:06:24.253Z,12.53
2023-04-07T04:08:54.039Z,12.17
2023-04-07T04:11:22.129Z,12.87
2023-04-07T04:13:57.605Z,14.57
2023-04-07T04:16:24.542Z,13.87
2023-04-07T04:18:53.736Z,14.23
2023-04-07T04:21:21.662Z,13.97
2023-04-07T04:23:48.712Z,15.33
2023-04-07T04:26:16.115Z,14.00
2023-04-07T04:28:45.234Z,15.23
2023-04-07T04:31:13.305Z,16.17
2023-04-07T04:33:43.913Z,16.17
2023-04-07T04:36:10.967Z,15.60
2023-04-07T04:38:39.156Z,14.23
2023-04-07T04:41:15.410Z,15.40
2023-04-07T04:43:43.446Z,15.73
2023-04-07T04:46:13.232Z,15.97
2023-04-07T04:48:43.219Z,14.60
2023-04-07T04:51:10.264Z,15.37
2023-04-07T04:53:39.560Z,15.10
2023-04-07T04:56:07.751Z,15.30
2023-04-07T04:58:40.827Z,15.40
2023-04-07T05:01:08.802Z,13.67
2023-04-07T05:03:43.204Z,14.63
2023-04-07T05:06:19.195Z,15.07
2023-04-07T05:08:48.814Z,17.13
2023-04-07T05:11:18.230Z,22.63
2023-04-07T05:13:50.118Z,22.10
2023-04-07T05:16:17.072Z,21.07
2023-04-07T05:18:44.249Z,22.10
2023-04-07T05:21:11.379Z,17.43
2023-04-07T05:23:38.358Z,15.07
2023-04-07T05:26:06.630Z,14.77
2023-04-07T05:28:33.711Z,15.90
2023-04-07T05:31:07.417Z,14.90
2023-04-07T05:33:36.048Z,15.60
2023-04-07T05:36:03.624Z,13.27
2023-04-07T05:38:32.136Z,13.63
2023-04-07T05:41:05.757Z,14.80
2023-04-07T05:43:35.276Z,13.37
2023-04-07T05:46:02.369Z,13.80
2023-04-07T05:48:31.789Z,14.00
2023-04-07T05:50:58.733Z,13.50
2023-04-07T05:53:26.285Z,13.67
2023-04-07T05:55:53.060Z,15.13
2023-04-07T05:58:28.411Z,14.60
2023-04-07T06:00:56.475Z,15.30
2023-04-07T06:03:23.630Z,15.97
2023-04-07T06:06:03.297Z,16.03
2023-04-07T06:08:30.457Z,16.87
2023-04-07T06:10:57.249Z,16.60
2023-04-07T06:13:24.219Z,17.73
2023-04-07T06:15:51.174Z,15.60
2023-04-07T06:18:18.298Z,14.70
2023-04-07T06:20:45.116Z,14.77
2023-04-07T06:23:12.173Z,14.80
2023-04-07T06:25:39.018Z,15.77
2023-04-07T06:28:06.297Z,18.77
2023-04-07T06:30:34.115Z,16.87
2023-04-07T06:33:01.495Z,20.67
2023-04-07T06:35:28.307Z,25.80
2023-04-07T06:37:55.660Z,23.13
2023-04-07T06:40:22.467Z,18.73
2023-04-07T06:42:49.478Z,21.23
2023-04-07T06:45:24.096Z,19.57
2023-04-07T06:47:51.368Z,20.50
2023-04-07T06:50:20.864Z,17.50
2023-04-07T06:52:48.296Z,19.07
2023-04-07T06:55:15.690Z,17.97
2023-04-07T06:57:42.693Z,18.63
2023-04-07T07:00:10.155Z,18.40
2023-04-07T07:02:37.225Z,17.73
2023-04-07T07:05:04.859Z,18.00
2023-04-07T07:07:31.801Z,17.27
2023-04-07T07:09:58.570Z,15.70
2023-04-07T07:12:25.700Z,16.73
2023-04-07T07:14:52.396Z,18.30
2023-04-07T07:17:19.353Z,16.90
2023-04-07T07:19:46.112Z,16.07
2023-04-07T07:22:13.142Z,17.37
2023-04-07T07:24:39.854Z,18.57
2023-04-07T07:27:06.850Z,18.47
2023-04-07T07:29:33.648Z,19.93
2023-04-07T07:32:00.883Z,20.37
2023-04-07T07:34:27.705Z,20.13
2023-04-07T07:36:54.669Z,20.17
2023-04-07T07:39:21.497Z,19.97
2023-04-07T07:41:49.194Z,20.17
2023-04-07T07:44:16.142Z,18.67
2023-04-07T07:46:43.218Z,17.80
2023-04-07T07:49:09.975Z,16.83
2023-04-07T07:51:37.254Z,16.70
2023-04-07T07:54:04.137Z,16.43
2023-04-07T07:56:31.173Z,15.83
2023-04-07T07:58:58.473Z,15.50
2023-04-07T08:01:25.627Z,14.10
2023-04-07T08:03:52.924Z,14.00
2023-04-07T08:06:20.526Z,16.97
2023-04-07T08:08:47.325Z,15.17
2023-04-07T08:11:14.339Z,16.10
2023-04-07T08:13:45.377Z,14.97
2023-04-07T08:16:12.635Z,14.43
2023-04-07T08:18:39.441Z,16.30
2023-04-07T08:21:06.890Z,13.90
2023-04-07T08:23:33.651Z,14.97
2023-04-07T08:26:00.677Z,14.53
2023-04-07T08:28:27.640Z,14.33
2023-04-07T08:30:54.679Z,12.83
2023-04-07T08:33:22.392Z,13.63
2023-04-07T08:35:49.355Z,13.27
2023-04-07T08:38:16.206Z,14.33
2023-04-07T08:40:43.434Z,13.50
2023-04-07T08:43:10.636Z,13.07
2023-04-07T08:45:40.687Z,12.23
2023-04-07T08:48:17.998Z,12.90
2023-04-07T08:50:46.337Z,13.17
2023-04-07T08:53:17.000Z,13.20
2023-04-07T08:55:44.138Z,12.87
2023-04-07T08:58:12.538Z,13.10
2023-04-07T09:00:42.272Z,12.80
2023-04-07T09:03:11.710Z,12.07
2023-04-07T09:05:39.222Z,12.03
2023-04-07T09:08:06.858Z,13.03
2023-04-07T09:10:33.923Z,12.30
2023-04-07T09:13:00.753Z,13.73
2023-04-07T09:15:31.965Z,13.27
2023-04-07T09:17:59.395Z,13.30
2023-04-07T09:20:26.519Z,14.10
2023-04-07T09:22:53.298Z,13.87
2023-04-07T09:25:27.447Z,12.50
2023-04-07T09:28:05.135Z,13.50
2023-04-07T09:30:33.550Z,12.03
2023-04-07T09:33:01.470Z,13.90
2023-04-07T09:35:29.794Z,15.17
2023-04-07T09:38:07.087Z,13.90
2023-04-07T09:40:34.827Z,12.53
2023-04-07T09:43:02.900Z,12.60
2023-04-07T09:45:36.695Z,14.57
2023-04-07T09:48:20.974Z,12.27
2023-04-07T09:50:49.679Z,12.13
2023-04-07T09:53:17.223Z,13.57
2023-04-07T09:55:45.065Z,11.30
2023-04-07T09:58:14.132Z,12.57
2023-04-07T10:00:42.397Z,13.73
2023-04-07T10:03:09.642Z,12.50
2023-04-07T10:05:37.186Z,12.57
2023-04-07T10:08:06.553Z,12.50
2023-04-07T10:10:35.438Z,12.70
2023-04-07T10:13:05.563Z,11.87
2023-04-07T10:15:33.334Z,10.80
2023-04-07T10:18:00.898Z,11.80
2023-04-07T10:20:29.953Z,13.02
2023-04-07T10:23:06.744Z,13.07
2023-04-07T10:25:36.355Z,13.97
2023-04-07T10:28:09.643Z,15.93
2023-04-07T10:30:36.877Z,15.00
2023-04-07T10:33:03.753Z,14.63
2023-04-07T10:36:03.447Z,16.13
2023-04-07T10:38:31.670Z,14.77
2023-04-07T10:40:58.706Z,15.70
2023-04-07T10:43:44.219Z,14.87
2023-04-07T10:46:11.361Z,14.67
2023-04-07T10:48:38.659Z,14.40
2023-04-07T10:51:05.693Z,13.83
2023-04-07T10:53:32.501Z,14.95
2023-04-07T10:55:59.970Z,13.93
2023-04-07T10:58:30.880Z,14.90
2023-04-07T11:01:06.908Z,14.20
2023-04-07T11:03:36.357Z,14.63
2023-04-07T11:06:10.581Z,14.93
2023-04-07T11:08:38.528Z,14.85
2023-04-07T11:11:10.174Z,14.47
2023-04-07T11:13:48.010Z,14.40
2023-04-07T11:16:18.022Z,14.02
2023-04-07T11:18:46.456Z,13.55
2023-04-07T11:21:18.179Z,13.05
2023-04-07T11:23:47.217Z,12.38
2023-04-07T11:26:15.763Z,13.98
2023-04-07T11:28:52.450Z,15.40
2023-04-07T11:31:31.457Z,14.70
2023-04-07T11:34:00.750Z,13.88
2023-04-07T11:36:28.928Z,15.70
2023-04-07T11:38:57.701Z,15.05
2023-04-07T11:41:27.575Z,16.20
2023-04-07T11:44:05.051Z,17.90
2023-04-07T11:46:32.205Z,18.10
2023-04-07T11:49:12.811Z,17.17
2023-04-07T11:51:41.078Z,18.77
2023-04-07T11:54:08.032Z,16.27
2023-04-07T11:56:48.159Z,16.42
2023-04-07T11:59:23.855Z,18.00
2023-04-07T12:01:55.321Z,18.30
2023-04-07T12:04:23.148Z,17.85
2023-04-07T12:06:50.435Z,16.83
2023-04-07T12:09:32.398Z,17.80
2023-04-07T12:12:00.248Z,19.13
2023-04-07T12:14:27.918Z,17.02
2023-04-07T12:16:56.933Z,16.42
2023-04-07T12:19:30.814Z,16.27
2023-04-07T12:21:57.857Z,17.52
2023-04-07T12:24:24.671Z,17.52
2023-04-07T12:26:53.498Z,17.67
2023-04-07T12:29:20.429Z,17.02
2023-04-07T12:31:50.126Z,16.73
2023-04-07T12:34:17.876Z,16.65
2023-04-07T12:36:45.074Z,16.52
2023-04-07T12:39:11.870Z,17.15
2023-04-07T12:41:39.741Z,16.33
2023-04-07T12:44:06.706Z,17.45
2023-04-07T12:46:33.593Z,16.70
2023-04-07T12:49:01.145Z,17.48
2023-04-07T12:51:28.464Z,16.90
2023-04-07T12:53:55.629Z,17.30
2023-04-07T12:56:22.527Z,16.92
2023-04-07T12:58:49.706Z,18.03
2023-04-07T13:01:16.826Z,16.00
2023-04-07T13:03:44.371Z,17.33
2023-04-07T13:06:11.853Z,17.80
2023-04-07T13:08:39.814Z,18.10
2023-04-07T13:11:07.127Z,18.17
2023-04-07T13:13:34.481Z,19.53
2023-04-07T13:16:01.865Z,19.38
2023-04-07T13:18:28.899Z,17.00
2023-04-07T13:21:24.911Z,18.37
2023-04-07T13:23:43.822Z,19.07
2023-04-07T13:26:11.480Z,20.33
2023-04-07T13:28:39.122Z,18.93
2023-04-07T13:31:06.441Z,18.42
2023-04-07T13:33:34.998Z,17.98
2023-04-07T13:36:01.801Z,18.70
2023-04-07T13:38:28.800Z,16.75
2023-04-07T13:40:55.483Z,18.50
2023-04-07T13:43:22.540Z,18.03
2023-04-07T13:45:49.643Z,17.57
2023-04-07T13:48:16.833Z,17.70
2023-04-07T13:50:43.594Z,19.07
2023-04-07T13:53:10.639Z,19.07
2023-04-07T13:55:37.454Z,19.55
2023-04-07T13:58:04.468Z,18.53
2023-04-07T14:00:31.590Z,20.40
2023-04-07T14:02:59.301Z,18.75
2023-04-07T14:05:26.522Z,18.77
2023-04-07T14:07:54.457Z,20.63
2023-04-07T14:10:21.640Z,20.70
2023-04-07T14:12:48.682Z,20.50
2023-04-07T14:15:17.681Z,20.63
2023-04-07T14:17:45.420Z,20.97
2023-04-07T14:20:12.220Z,19.27
2023-04-07T14:22:39.244Z,19.70
2023-04-07T14:25:06.532Z,20.40
2023-04-07T14:27:33.604Z,20.00
2023-04-07T14:30:00.402Z,19.97
2023-04-07T14:32:29.738Z,21.17
2023-04-07T14:34:59.049Z,20.75
2023-04-07T14:37:28.391Z,21.55
2023-04-07T14:40:01.853Z,21.50
2023-04-07T14:42:30.786Z,22.07
2023-04-07T14:44:58.952Z,21.00
2023-04-07T14:47:26.431Z,20.42
2023-04-07T14:49:53.696Z,21.70
2023-04-07T14:52:24.497Z,19.70
2023-04-07T14:54:51.303Z,19.83
2023-04-07T14:57:18.376Z,19.75
2023-04-07T14:59:45.078Z,19.25
2023-04-07T15:02:12.461Z,19.17
2023-04-07T15:04:39.558Z,19.77
2023-04-07T15:07:06.690Z,19.55
2023-04-07T15:09:33.484Z,20.42
2023-04-07T15:12:00.852Z,19.85
2023-04-07T15:14:27.977Z,22.02
2023-04-07T15:16:55.093Z,20.27
2023-04-07T15:19:21.938Z,20.40
2023-04-07T15:21:48.958Z,20.00
2023-04-07T15:24:16.576Z,21.08
2023-04-07T15:26:43.819Z,20.75
2023-04-07T15:29:10.914Z,20.33
2023-04-07T15:31:38.087Z,21.38
2023-04-07T15:34:05.655Z,20.73
2023-04-07T15:36:32.631Z,20.65
2023-04-07T15:39:06.672Z,20.80
2023-04-07T15:41:34.024Z,20.53
2023-04-07T15:44:01.544Z,21.45
2023-04-07T15:46:29.085Z,20.53
2023-04-07T15:48:55.905Z,21.07
2023-04-07T15:51:23.246Z,21.80
2023-04-07T15:53:50.408Z,21.58
2023-04-07T15:56:17.531Z,23.63
2023-04-07T15:58:45.890Z,24.55
2023-04-07T16:01:13.173Z,25.95
2023-04-07T16:03:40.093Z,27.77
2023-04-07T16:06:07.196Z,26.35
2023-04-07T16:08:33.982Z,25.92
2023-04-07T16:11:01.103Z,25.25
2023-04-07T16:13:27.910Z,30.43
2023-04-07T16:15:56.933Z,38.00
2023-04-07T16:18:23.726Z,30.47
2023-04-07T16:20:50.812Z,28.53
2023-04-07T16:23:17.689Z,28.55
2023-04-07T16:25:44.702Z,28.58
2023-04-07T16:28:11.427Z,29.17
2023-04-07T16:30:38.491Z,32.30
2023-04-07T16:33:05.525Z,31.07
2023-04-07T16:35:32.732Z,28.80
2023-04-07T16:38:04.101Z,29.43
2023-04-07T16:40:31.368Z,29.43
2023-04-07T16:42:58.083Z,29.63
2023-04-07T16:45:25.113Z,29.97
2023-04-07T16:47:51.862Z,29.97
2023-04-07T16:50:19.066Z,31.17
2023-04-07T16:52:47.694Z,29.40
2023-04-07T16:55:14.821Z,30.63
2023-04-07T16:57:41.645Z,30.83
2023-04-07T17:00:09.343Z,29.30
2023-04-07T17:02:36.325Z,30.93
2023-04-07T17:05:03.821Z,29.47
2023-04-07T17:07:32.815Z,29.50
2023-04-07T17:10:00.036Z,28.47
2023-04-07T17:12:26.965Z,28.80
2023-04-07T17:14:53.933Z,28.10
2023-04-07T17:17:20.872Z,27.57
2023-04-07T17:19:47.845Z,27.40
2023-04-07T17:22:14.698Z,26.80
2023-04-07T17:24:41.679Z,26.97
2023-04-07T17:27:08.520Z,26.17
2023-04-07T17:29:35.684Z,25.77
2023-04-07T17:32:02.669Z,27.27
2023-04-07T17:34:29.713Z,26.10
2023-04-07T17:36:56.466Z,25.87
2023-04-07T17:39:23.504Z,26.73
2023-04-07T17:41:50.620Z,27.10
2023-04-07T17:44:17.825Z,27.63
2023-04-07T17:46:44.561Z,26.43
2023-04-07T17:49:11.666Z,25.60
2023-04-07T17:51:38.436Z,26.17
2023-04-07T17:54:05.781Z,27.13
2023-04-07T17:56:32.780Z,25.10
2023-04-07T17:58:59.842Z,25.17
2023-04-07T18:01:26.631Z,25.03
2023-04-07T18:03:53.982Z,24.93
2023-04-07T18:06:20.961Z,25.40
2023-04-07T18:08:48.950Z,24.73
2023-04-07T18:11:17.147Z,25.27
2023-04-07T18:13:44.824Z,23.47
2023-04-07T18:16:17.309Z,25.23
2023-04-07T18:18:46.393Z,24.53
2023-04-07T18:21:13.386Z,23.43
2023-04-07T18:23:41.019Z,23.90
2023-04-07T18:26:07.747Z,24.27
2023-04-07T18:28:35.379Z,24.67
2023-04-07T18:31:07.629Z,23.73
2023-04-07T18:33:36.414Z,24.27
2023-04-07T18:36:09.142Z,23.47
2023-04-07T18:38:36.528Z,24.47
2023-04-07T18:41:06.709Z,25.00
2023-04-07T18:43:34.078Z,25.20
2023-04-07T18:46:00.929Z,24.23
2023-04-07T18:48:28.470Z,23.07
2023-04-07T18:50:55.648Z,24.17
2023-04-07T18:53:24.232Z,23.00
2023-04-07T18:55:51.273Z,26.93
2023-04-07T18:58:19.282Z,25.20
2023-04-07T19:00:47.530Z,25.90
2023-04-07T19:03:14.708Z,27.13
2023-04-07T19:05:42.210Z,26.00
2023-04-07T19:08:09.774Z,34.93
2023-04-07T19:10:36.606Z,33.03
2023-04-07T19:13:04.363Z,33.83
2023-04-07T19:15:34.261Z,36.33
2023-04-07T19:18:02.490Z,34.67
2023-04-07T19:20:33.915Z,35.47
2023-04-07T19:23:02.050Z,35.60
2023-04-07T19:25:30.675Z,34.47
2023-04-07T19:27:58.573Z,35.30
2023-04-07T19:30:25.417Z,34.67
2023-04-07T19:32:52.865Z,34.80
2023-04-07T19:35:19.883Z,32.57
2023-04-07T19:37:48.115Z,32.43
2023-04-07T19:40:15.649Z,33.50
2023-04-07T19:42:42.819Z,33.87
2023-04-07T19:45:10.209Z,35.37
2023-04-07T19:47:38.425Z,32.97
2023-04-07T19:50:06.106Z,33.27
2023-04-07T19:52:33.236Z,35.10
2023-04-07T19:55:03.734Z,35.63
2023-04-07T19:57:34.041Z,33.97
2023-04-07T20:00:01.020Z,33.93
2023-04-07T20:02:28.332Z,32.97
2023-04-07T20:04:55.579Z,32.80
2023-04-07T20:07:22.807Z,35.27
2023-04-07T20:09:54.021Z,33.30
2023-04-07T20:12:21.170Z,33.63
2023-04-07T20:14:47.876Z,32.53
2023-04-07T20:17:15.056Z,31.97
2023-04-07T20:19:42.288Z,30.23
2023-04-07T20:22:09.276Z,30.30
2023-04-07T20:24:36.484Z,31.07
2023-04-07T20:27:03.572Z,33.73
2023-04-07T20:29:30.452Z,33.57
2023-04-07T20:31:57.585Z,33.27
2023-04-07T20:34:24.469Z,34.17
2023-04-07T20:36:51.687Z,31.67
2023-04-07T20:39:18.496Z,36.67
2023-04-07T20:41:45.679Z,35.93
2023-04-07T20:44:12.400Z,35.73
2023-04-07T20:46:39.087Z,36.87
2023-04-07T20:49:07.857Z,36.13
2023-04-07T20:51:36.717Z,34.53
2023-04-07T20:54:04.716Z,39.40
2023-04-07T20:56:31.886Z,41.47
2023-04-07T20:58:58.996Z,57.57
2023-04-07T21:01:26.075Z,68.93
2023-04-07T21:03:53.993Z,79.17
2023-04-07T21:06:21.450Z,80.37
2023-04-07T21:08:48.769Z,83.17
2023-04-07T21:11:15.866Z,80.30
2023-04-07T21:13:43.128Z,78.53
2023-04-07T21:16:09.956Z,74.27
2023-04-07T21:18:37.163Z,70.30
2023-04-07T21:21:04.351Z,69.13
2023-04-07T21:23:31.907Z,64.10
2023-04-07T21:26:03.070Z,61.70
2023-04-07T21:28:30.298Z,62.30
2023-04-07T21:30:57.222Z,58.00
2023-04-07T21:33:24.420Z,52.73
2023-04-07T21:35:51.913Z,52.50
2023-04-07T21:38:19.181Z,50.13
2023-04-07T21:40:46.016Z,45.40
2023-04-07T21:43:13.247Z,45.93
2023-04-07T21:45:40.503Z,43.27
2023-04-07T21:48:07.989Z,43.13
2023-04-07T21:50:36.055Z,42.33
2023-04-07T21:53:03.026Z,42.17
2023-04-07T21:55:29.753Z,44.33
2023-04-07T21:57:58.056Z,46.17
2023-04-07T22:00:25.069Z,44.30
2023-04-07T22:02:52.350Z,43.10
2023-04-07T22:05:20.583Z,41.80
2023-04-07T22:07:48.346Z,41.03
2023-04-07T22:10:15.062Z,40.97
2023-04-07T22:12:42.253Z,42.37
2023-04-07T22:15:11.251Z,41.47
2023-04-07T22:17:39.959Z,41.30
2023-04-07T22:20:09.534Z,40.37
2023-04-07T22:22:36.814Z,39.17
2023-04-07T22:25:03.823Z,40.10
2023-04-07T22:27:30.960Z,39.07
2023-04-07T22:29:57.803Z,40.37
2023-04-07T22:32:24.804Z,39.50
2023-04-07T22:34:51.626Z,37.13
2023-04-07T22:37:19.322Z,34.83
2023-04-07T22:39:46.371Z,38.43
2023-04-07T22:42:14.062Z,38.47
2023-04-07T22:44:41.011Z,38.70
2023-04-07T22:47:08.111Z,36.37
2023-04-07T22:49:34.851Z,36.80
2023-04-07T22:52:02.874Z,35.50
2023-04-07T22:54:29.700Z,35.17
2023-04-07T22:56:57.423Z,36.40
2023-04-07T22:59:24.202Z,32.37
2023-04-07T23:01:51.257Z,35.33
2023-04-07T23:04:18.120Z,32.70
2023-04-07T23:06:45.247Z,35.20
2023-04-07T23:09:12.145Z,33.67
2023-04-07T23:11:39.174Z,35.20
2023-04-07T23:14:06.235Z,30.57
2023-04-07T23:16:34.117Z,30.40
2023-04-07T23:19:01.288Z,30.23
2023-04-07T23:21:31.330Z,30.57
2023-04-07T23:23:58.649Z,37.03
2023-04-07T23:26:26.800Z,31.17
2023-04-07T23:28:53.683Z,30.40
2023-04-07T23:31:20.839Z,32.97
2023-04-07T23:33:47.762Z,40.53
2023-04-07T23:36:14.981Z,37.77
2023-04-07T23:38:42.006Z,35.53
2023-04-07T23:41:09.170Z,34.37
2023-04-07T23:43:35.887Z,36.07
2023-04-07T23:46:03.269Z,42.67
2023-04-07T23:48:31.364Z,55.13
2023-04-07T23:50:59.969Z,53.70
2023-04-07T23:53:26.848Z,52.70
2023-04-07T23:55:54.129Z,50.57
2023-04-07T23:58:20.950Z,51.43
